createdAt,value
2017-07-02T00:01:22.755Z,18.24
2017-07-02T00:03:38.131Z,18.26
2017-07-02T00:06:01.927Z,18.21
2017-07-02T00:08:25.730Z,18.24
2017-07-02T00:10:49.542Z,18.24
2017-07-02T00:13:04.948Z,18.27
2017-07-02T00:15:28.758Z,18.46
2017-07-02T00:17:38.589Z,18.41
2017-07-02T00:20:02.445Z,18.26
2017-07-02T00:22:26.242Z,18.23
2017-07-02T00:24:49.978Z,18.19
2017-07-02T00:27:13.806Z,18.16
2017-07-02T00:29:38.779Z,18.45
2017-07-02T00:32:02.529Z,18.49
2017-07-02T00:34:26.323Z,18.43
2017-07-02T00:36:50.138Z,18.37
2017-07-02T00:39:13.899Z,18.46
2017-07-02T00:41:29.277Z,18.57
2017-07-02T00:43:44.647Z,18.43
2017-07-02T00:46:00.058Z,18.53
2017-07-02T00:48:15.450Z,18.48
2017-07-02T00:50:39.258Z,18.49
2017-07-02T00:52:32.179Z,18.41
2017-07-02T00:54:56.025Z,18.53
2017-07-02T00:57:03.000Z,18.36
2017-07-02T00:59:26.813Z,18.51
2017-07-02T01:01:50.623Z,18.57
2017-07-02T01:04:14.434Z,18.79
2017-07-02T01:05:50.224Z,18.74
2017-07-02T01:08:14.077Z,18.78
2017-07-02T01:10:37.910Z,18.68
2017-07-02T01:12:53.304Z,18.71
2017-07-02T01:15:08.692Z,18.49
2017-07-02T01:17:24.113Z,18.53
2017-07-02T01:19:47.950Z,18.36
2017-07-02T01:22:03.333Z,18.3
2017-07-02T01:24:13.178Z,18.26
2017-07-02T01:26:37.010Z,18.21
2017-07-02T01:29:00.868Z,18.36
2017-07-02T01:31:02.204Z,18.46
2017-07-02T01:33:26.052Z,18.43
2017-07-02T01:35:49.872Z,18.58
2017-07-02T01:38:13.677Z,18.66
2017-07-02T01:40:37.495Z,18.73
2017-07-02T01:42:44.479Z,18.74
2017-07-02T01:45:08.299Z,18.92
2017-07-02T01:47:32.091Z,18.91
2017-07-02T01:49:47.548Z,19.19
2017-07-02T01:52:11.377Z,19.07
2017-07-02T01:54:35.202Z,19.16
2017-07-02T01:56:59.047Z,19.15
2017-07-02T01:58:34.850Z,19.34
2017-07-02T02:00:58.729Z,19.17
2017-07-02T02:03:22.519Z,19.3
2017-07-02T02:05:46.380Z,19.45
2017-07-02T02:08:10.253Z,19.59
2017-07-02T02:10:25.697Z,19.53
2017-07-02T02:12:49.499Z,19.47
2017-07-02T02:15:13.345Z,19.72
2017-07-02T02:17:37.295Z,19.38
2017-07-02T02:20:01.097Z,19.49
2017-07-02T02:22:24.979Z,19.67
2017-07-02T02:24:48.837Z,19.78
2017-07-02T02:27:12.716Z,19.56
2017-07-02T02:29:36.688Z,19.66
2017-07-02T02:32:00.504Z,19.63
2017-07-02T02:34:24.358Z,19.57
2017-07-02T02:36:39.744Z,19.67
2017-07-02T02:38:55.170Z,19.56
2017-07-02T02:41:19.034Z,19.52
2017-07-02T02:43:42.889Z,19.34
2017-07-02T02:45:58.317Z,19.39
2017-07-02T02:48:22.170Z,19.55
2017-07-02T02:50:45.966Z,19.44
2017-07-02T02:53:09.821Z,19.47
2017-07-02T02:55:33.652Z,19.35
2017-07-02T02:57:57.508Z,19.29
2017-07-02T03:00:21.364Z,19.27
2017-07-02T03:02:45.255Z,19.32
2017-07-02T03:05:09.102Z,19.24
2017-07-02T03:07:24.529Z,19.24
2017-07-02T03:09:48.381Z,19.26
2017-07-02T03:12:12.243Z,19.22
2017-07-02T03:14:36.113Z,19.11
2017-07-02T03:16:59.979Z,19.17
2017-07-02T03:19:23.851Z,19.24
2017-07-02T03:21:47.726Z,19.19
2017-07-02T03:24:11.596Z,19.3
2017-07-02T03:26:27.046Z,19.19
2017-07-02T03:28:50.828Z,19.19
2017-07-02T03:31:14.693Z,18.92
2017-07-02T03:33:38.517Z,19.08
2017-07-02T03:36:02.331Z,18.98
2017-07-02T03:38:17.753Z,18.79
2017-07-02T03:40:41.581Z,18.89
2017-07-02T03:43:05.370Z,18.89
2017-07-02T03:45:29.177Z,18.83
2017-07-02T03:47:53.017Z,18.74
2017-07-02T03:50:16.826Z,18.97
2017-07-02T03:52:32.206Z,18.94
2017-07-02T03:54:56.045Z,18.83
2017-07-02T03:57:11.471Z,18.83
2017-07-02T03:59:35.304Z,18.82
2017-07-02T04:01:59.151Z,19
2017-07-02T04:04:22.972Z,18.96
2017-07-02T04:06:46.809Z,19.07
2017-07-02T04:09:10.666Z,19.26
2017-07-02T04:11:11.992Z,19.12
2017-07-02T04:13:35.865Z,19.09
2017-07-02T04:15:59.703Z,19.2
2017-07-02T04:18:23.534Z,19.07
2017-07-02T04:20:38.951Z,19.17
2017-07-02T04:23:02.756Z,19.11
2017-07-02T04:25:18.185Z,19.09
2017-07-02T04:27:33.634Z,19.07
2017-07-02T04:29:57.509Z,19.16
2017-07-02T04:32:21.362Z,19.16
2017-07-02T04:34:45.208Z,19.26
2017-07-02T04:37:09.077Z,19.23
2017-07-02T04:39:24.512Z,19.32
2017-07-02T04:41:39.957Z,19.12
2017-07-02T04:44:03.807Z,19.42
2017-07-02T04:46:19.193Z,19.64
2017-07-02T04:48:43.101Z,19.71
2017-07-02T04:50:58.542Z,19.57
2017-07-02T04:53:22.401Z,19.52
2017-07-02T04:55:46.283Z,19.52
2017-07-02T04:58:10.165Z,19.6
2017-07-02T05:00:34.033Z,19.47
2017-07-02T05:02:57.904Z,19.53
2017-07-02T05:05:21.688Z,19.71
2017-07-02T05:07:37.092Z,19.77
2017-07-02T05:10:00.958Z,19.87
2017-07-02T05:12:24.766Z,19.9
2017-07-02T05:14:34.614Z,19.89
2017-07-02T05:16:58.553Z,19.59
2017-07-02T05:19:22.451Z,19.67
2017-07-02T05:21:46.331Z,19.37
2017-07-02T05:24:10.190Z,19.41
2017-07-02T05:26:34.160Z,19.6
2017-07-02T05:28:58.049Z,19.44
2017-07-02T05:30:59.386Z,19.55
2017-07-02T05:33:23.424Z,19.55
2017-07-02T05:35:47.306Z,19.74
2017-07-02T05:38:11.231Z,20.21
2017-07-02T05:40:35.069Z,20.14
2017-07-02T05:42:58.929Z,20.17
2017-07-02T05:45:22.842Z,20.98
2017-07-02T05:47:46.765Z,21.41
2017-07-02T05:49:31.525Z,21.5
2017-07-02T05:51:55.531Z,21.14
2017-07-02T05:54:19.522Z,21.15
2017-07-02T05:56:43.505Z,21.45
2017-07-02T05:59:07.526Z,21.38
2017-07-02T06:01:31.494Z,21.23
2017-07-02T06:03:55.467Z,21.48
2017-07-02T06:06:19.486Z,21.59
2017-07-02T06:08:43.470Z,21.84
2017-07-02T06:10:59.043Z,22.03
2017-07-02T06:13:23.059Z,22.01
2017-07-02T06:15:47.072Z,22.01
2017-07-02T06:18:11.116Z,22.12
2017-07-02T06:20:13.005Z,22.12
2017-07-02T06:22:06.782Z,22.22
2017-07-02T06:24:30.854Z,22
2017-07-02T06:26:54.947Z,21.77
2017-07-02T06:29:18.850Z,21.84
2017-07-02T06:31:42.886Z,21.48
2017-07-02T06:34:06.903Z,21.43
2017-07-02T06:36:30.897Z,21.2
2017-07-02T06:38:54.902Z,21.43
2017-07-02T06:41:18.990Z,21.84
2017-07-02T06:43:43.002Z,22.01
2017-07-02T06:46:06.906Z,21.63
2017-07-02T06:48:30.897Z,21.33
2017-07-02T06:50:54.941Z,21.63
2017-07-02T06:54:46.234Z,21.07
2017-07-02T06:57:10.318Z,21.17
2017-07-02T06:59:25.935Z,21.15
2017-07-02T07:01:27.810Z,21.23
2017-07-02T07:03:29.674Z,20.93
2017-07-02T07:05:53.686Z,20.88
2017-07-02T07:08:26.382Z,20.92
2017-07-02T07:10:50.442Z,20.9
2017-07-02T07:12:57.710Z,21.11
2017-07-02T07:15:21.698Z,21.3
2017-07-02T07:17:45.714Z,21.33
2017-07-02T07:20:09.738Z,21.38
2017-07-02T07:22:33.788Z,21.7
2017-07-02T07:24:57.833Z,22.03
2017-07-02T07:27:21.917Z,21.96
2017-07-02T07:29:46.006Z,22.12
2017-07-02T07:32:10.050Z,22.06
2017-07-02T07:34:34.116Z,22.1
2017-07-02T07:36:58.187Z,22.25
2017-07-02T07:39:22.242Z,22.21
2017-07-02T07:41:53.074Z,22.1
2017-07-02T07:44:17.143Z,22.28
2017-07-02T07:46:41.226Z,22.21
2017-07-02T07:49:05.233Z,22.25
2017-07-02T07:51:29.274Z,22.21
2017-07-02T07:53:53.387Z,22.23
2017-07-02T07:56:17.482Z,21.99
2017-07-02T07:58:41.565Z,21.91
2017-07-02T08:01:05.671Z,21.8
2017-07-02T08:03:30.080Z,22.03
2017-07-02T08:05:54.079Z,22
2017-07-02T08:08:18.175Z,22.08
2017-07-02T08:10:42.284Z,22.07
2017-07-02T08:13:06.370Z,22.08
2017-07-02T08:15:16.815Z,22.16
2017-07-02T08:17:40.946Z,22.26
2017-07-02T08:20:05.044Z,22.41
2017-07-02T08:22:29.153Z,22.52
2017-07-02T08:24:53.236Z,22.58
2017-07-02T08:27:17.333Z,22.88
2017-07-02T08:29:41.494Z,22.93
2017-07-02T08:32:05.587Z,23.1
2017-07-02T08:34:29.723Z,22.7
2017-07-02T08:36:53.817Z,22.63
2017-07-02T08:39:17.929Z,22.38
2017-07-02T08:41:42.548Z,22.22
2017-07-02T08:43:58.432Z,22.25
2017-07-02T08:46:22.586Z,22.14
2017-07-02T08:48:46.686Z,22.78
2017-07-02T08:51:11.250Z,22.73
2017-07-02T08:53:35.508Z,23.58
2017-07-02T08:55:59.850Z,25.67
2017-07-02T08:58:24.139Z,28.25
2017-07-02T09:00:48.518Z,30.83
2017-07-02T09:03:14.947Z,28.52
2017-07-02T09:05:39.606Z,26.97
2017-07-02T09:07:45.770Z,26.19
2017-07-02T09:10:13.929Z,25.55
2017-07-02T09:12:38.009Z,25.7
2017-07-02T09:15:02.685Z,25.77
2017-07-02T09:17:27.324Z,26.36
2017-07-02T09:19:51.761Z,27
2017-07-02T09:22:16.421Z,26.96
2017-07-02T09:24:41.710Z,27.41
2017-07-02T09:27:40.402Z,27.15
2017-07-02T20:08:51.989Z,19.92
2017-07-02T20:11:16.479Z,19.78
2017-07-02T20:13:47.654Z,19.87
2017-07-02T20:16:13.127Z,19.94
2017-07-02T20:18:38.834Z,20.19
2017-07-02T20:21:03.667Z,20.14
2017-07-02T20:23:27.610Z,20.03
2017-07-02T20:25:51.564Z,20
2017-07-02T20:28:15.502Z,19.89
2017-07-02T20:30:39.416Z,19.94
2017-07-02T20:33:03.293Z,19.96
2017-07-02T20:35:05.133Z,20
2017-07-02T20:37:29.158Z,19.82
2017-07-02T20:39:54.367Z,19.89
2017-07-02T20:42:18.269Z,19.85
2017-07-02T20:44:03.509Z,19.89
2017-07-02T20:46:30.898Z,19.74
2017-07-02T20:48:54.931Z,19.87
2017-07-02T20:51:18.852Z,19.77
2017-07-02T20:53:42.749Z,19.72
2017-07-02T20:56:06.695Z,19.45
2017-07-02T20:58:30.608Z,19.27
2017-07-02T21:00:46.079Z,19.49
2017-07-02T21:03:09.978Z,19.56
2017-07-02T21:05:33.830Z,19.59
2017-07-02T21:07:49.317Z,19.67
2017-07-02T21:10:13.223Z,19.53
2017-07-02T21:12:37.179Z,19.59
2017-07-02T21:15:01.052Z,19.72
2017-07-02T21:17:24.939Z,19.55
2017-07-02T21:19:48.864Z,19.49
2017-07-02T21:21:51.623Z,19.3
2017-07-02T21:23:53.528Z,19.37
2017-07-02T21:26:17.433Z,19.27
2017-07-02T21:28:41.269Z,19.24
2017-07-02T21:31:05.148Z,19.15
2017-07-02T21:33:29.007Z,19.16
2017-07-02T21:35:52.884Z,19.22
2017-07-02T21:38:16.764Z,19.15
2017-07-02T21:40:40.623Z,19.3
2017-07-02T21:43:04.490Z,19.45
2017-07-02T21:45:28.286Z,19.2
2017-07-02T21:47:52.159Z,19.11
2017-07-02T21:50:15.976Z,19.32
2017-07-02T21:52:39.833Z,19.29
2017-07-02T21:55:03.678Z,19.16
2017-07-02T21:57:27.546Z,19.26
2017-07-02T21:59:51.423Z,19.3
2017-07-02T22:02:15.294Z,19.16
2017-07-02T22:04:39.131Z,19.2
2017-07-02T22:07:02.981Z,19.07
2017-07-02T22:09:26.809Z,19.08
2017-07-02T22:11:50.654Z,19.07
2017-07-02T22:14:14.430Z,19.2
2017-07-02T22:16:38.263Z,19.2
2017-07-02T22:19:02.090Z,19.15
2017-07-02T22:21:25.958Z,19.09
2017-07-02T22:23:49.797Z,19.26
2017-07-02T22:26:13.619Z,19.15
2017-07-02T22:28:37.406Z,19.3
2017-07-02T22:31:01.273Z,19.26
2017-07-02T22:33:25.102Z,19.29
2017-07-02T22:35:48.985Z,19.16
2017-07-02T22:38:12.853Z,19.12
2017-07-02T22:40:36.629Z,19.39
2017-07-02T22:43:00.484Z,19.12
2017-07-02T22:45:24.322Z,19.3
2017-07-02T22:47:48.196Z,19.55
2017-07-02T22:50:11.994Z,19.44
2017-07-02T22:52:35.840Z,19.37
2017-07-02T22:54:46.149Z,19.52
2017-07-02T22:57:10.073Z,19.45
2017-07-02T22:59:33.902Z,19.6
2017-07-02T23:01:57.726Z,19.48
2017-07-02T23:04:21.571Z,19.3
2017-07-02T23:06:45.400Z,19.38
2017-07-02T23:09:09.262Z,19.34
2017-07-02T23:11:33.083Z,19.34
2017-07-02T23:13:43.396Z,19.47
2017-07-02T23:16:07.301Z,19.48
2017-07-02T23:18:31.168Z,19.53
2017-07-02T23:20:54.999Z,19.66
2017-07-02T23:23:18.909Z,19.64
2017-07-02T23:25:42.803Z,19.55
2017-07-02T23:28:06.626Z,19.55
2017-07-02T23:30:30.523Z,19.55
2017-07-02T23:32:54.424Z,19.47
2017-07-02T23:35:18.291Z,19.57
2017-07-02T23:37:42.108Z,19.49
2017-07-02T23:40:05.964Z,19.67
2017-07-02T23:42:29.824Z,19.72
2017-07-02T23:44:53.662Z,19.72
2017-07-02T23:47:17.498Z,19.59
2017-07-02T23:49:57.320Z,19.64
2017-07-02T23:52:21.174Z,19.55
2017-07-02T23:54:45.040Z,19.89
2017-07-02T23:57:08.951Z,19.67
2017-07-02T23:59:32.807Z,19.74
